sensor_id;sensor_type;location;lat;lon;timestamp;P1;durP1;ratioP1;P2;durP2;ratioP2
58784;SDS011;44557;51.862;19.378;2023-02-13T00:01:14;23.90;;;13.00;;
58784;SDS011;44557;51.862;19.378;2023-02-13T00:03:16;27.40;;;13.50;;
58784;SDS011;44557;51.862;19.378;2023-02-13T00:05:18;27.60;;;13.50;;
58784;SDS011;44557;51.862;19.378;2023-02-13T00:07:19;25.90;;;12.80;;
58784;SDS011;44557;51.862;19.378;2023-02-13T00:09:21;26.80;;;13.80;;
58784;SDS011;44557;51.862;19.378;2023-02-13T00:11:22;26.80;;;13.10;;
58784;SDS011;44557;51.862;19.378;2023-02-13T00:13:24;27.10;;;12.80;;
58784;SDS011;44557;51.862;19.378;2023-02-13T00:15:25;29.70;;;13.40;;
58784;SDS011;44557;51.862;19.378;2023-02-13T00:17:27;24.00;;;13.10;;
58784;SDS011;44557;51.862;19.378;2023-02-13T00:19:29;27.60;;;14.40;;
58784;SDS011;44557;51.862;19.378;2023-02-13T00:21:30;26.90;;;13.70;;
58784;SDS011;44557;51.862;19.378;2023-02-13T00:23:32;28.60;;;14.30;;
58784;SDS011;44557;51.862;19.378;2023-02-13T00:25:35;27.10;;;13.50;;
58784;SDS011;44557;51.862;19.378;2023-02-13T00:27:36;25.20;;;13.40;;
58784;SDS011;44557;51.862;19.378;2023-02-13T00:29:38;27.40;;;13.70;;
58784;SDS011;44557;51.862;19.378;2023-02-13T00:31:39;23.40;;;13.30;;
58784;SDS011;44557;51.862;19.378;2023-02-13T00:33:41;32.00;;;15.00;;
58784;SDS011;44557;51.862;19.378;2023-02-13T00:35:43;27.30;;;13.90;;
58784;SDS011;44557;51.862;19.378;2023-02-13T00:37:44;24.70;;;13.00;;
58784;SDS011;44557;51.862;19.378;2023-02-13T00:39:46;24.40;;;12.80;;
58784;SDS011;44557;51.862;19.378;2023-02-13T00:41:47;24.50;;;13.20;;
58784;SDS011;44557;51.862;19.378;2023-02-13T00:43:49;26.40;;;14.10;;
58784;SDS011;44557;51.862;19.378;2023-02-13T00:45:50;22.00;;;13.10;;
58784;SDS011;44557;51.862;19.378;2023-02-13T00:47:52;26.30;;;14.00;;
58784;SDS011;44557;51.862;19.378;2023-02-13T00:49:54;22.30;;;13.40;;
58784;SDS011;44557;51.862;19.378;2023-02-13T00:51:55;26.70;;;13.70;;
58784;SDS011;44557;51.862;19.378;2023-02-13T00:53:57;27.00;;;14.00;;
58784;SDS011;44557;51.862;19.378;2023-02-13T00:55:58;29.70;;;15.00;;
58784;SDS011;44557;51.862;19.378;2023-02-13T00:58:00;25.90;;;14.40;;
58784;SDS011;44557;51.862;19.378;2023-02-13T01:00:02;27.60;;;13.90;;
58784;SDS011;44557;51.862;19.378;2023-02-13T01:02:04;28.70;;;14.60;;
58784;SDS011;44557;51.862;19.378;2023-02-13T01:04:05;24.70;;;13.30;;
58784;SDS011;44557;51.862;19.378;2023-02-13T01:06:07;24.20;;;14.40;;
58784;SDS011;44557;51.862;19.378;2023-02-13T01:08:09;25.60;;;13.50;;
58784;SDS011;44557;51.862;19.378;2023-02-13T01:10:11;26.00;;;14.50;;
58784;SDS011;44557;51.862;19.378;2023-02-13T01:12:13;25.10;;;14.40;;
58784;SDS011;44557;51.862;19.378;2023-02-13T01:14:14;24.80;;;14.20;;
58784;SDS011;44557;51.862;19.378;2023-02-13T01:16:16;26.00;;;15.10;;
58784;SDS011;44557;51.862;19.378;2023-02-13T01:18:18;29.10;;;14.60;;
58784;SDS011;44557;51.862;19.378;2023-02-13T01:20:20;30.20;;;14.60;;
58784;SDS011;44557;51.862;19.378;2023-02-13T01:22:22;25.10;;;13.50;;
58784;SDS011;44557;51.862;19.378;2023-02-13T01:24:23;25.60;;;13.90;;
58784;SDS011;44557;51.862;19.378;2023-02-13T01:26:25;25.40;;;14.10;;
58784;SDS011;44557;51.862;19.378;2023-02-13T01:28:26;24.70;;;13.70;;
58784;SDS011;44557;51.862;19.378;2023-02-13T01:30:28;27.20;;;14.40;;
58784;SDS011;44557;51.862;19.378;2023-02-13T01:32:30;24.20;;;14.30;;
58784;SDS011;44557;51.862;19.378;2023-02-13T01:34:32;30.60;;;15.40;;
58784;SDS011;44557;51.862;19.378;2023-02-13T01:36:34;27.00;;;14.60;;
58784;SDS011;44557;51.862;19.378;2023-02-13T01:38:36;24.30;;;14.30;;
58784;SDS011;44557;51.862;19.378;2023-02-13T01:40:43;28.40;;;14.40;;
58784;SDS011;44557;51.862;19.378;2023-02-13T01:42:46;27.20;;;15.20;;
58784;SDS011;44557;51.862;19.378;2023-02-13T01:44:49;27.90;;;16.00;;
58784;SDS011;44557;51.862;19.378;2023-02-13T01:46:52;24.60;;;15.50;;
58784;SDS011;44557;51.862;19.378;2023-02-13T01:48:55;28.20;;;15.30;;
58784;SDS011;44557;51.862;19.378;2023-02-13T01:51:03;28.50;;;15.30;;
58784;SDS011;44557;51.862;19.378;2023-02-13T01:53:12;30.50;;;15.90;;
58784;SDS011;44557;51.862;19.378;2023-02-13T01:55:20;30.00;;;16.60;;
58784;SDS011;44557;51.862;19.378;2023-02-13T01:57:22;26.30;;;15.40;;
58784;SDS011;44557;51.862;19.378;2023-02-13T01:59:34;33.20;;;16.50;;
58784;SDS011;44557;51.862;19.378;2023-02-13T02:01:40;28.30;;;16.30;;
58784;SDS011;44557;51.862;19.378;2023-02-13T02:03:44;26.00;;;14.70;;
58784;SDS011;44557;51.862;19.378;2023-02-13T02:05:49;27.10;;;15.30;;
58784;SDS011;44557;51.862;19.378;2023-02-13T02:07:53;27.60;;;15.60;;
58784;SDS011;44557;51.862;19.378;2023-02-13T02:09:58;30.40;;;16.30;;
58784;SDS011;44557;51.862;19.378;2023-02-13T02:12:08;30.60;;;16.20;;
58784;SDS011;44557;51.862;19.378;2023-02-13T02:14:13;27.50;;;16.30;;
58784;SDS011;44557;51.862;19.378;2023-02-13T02:16:15;29.40;;;16.50;;
58784;SDS011;44557;51.862;19.378;2023-02-13T02:18:18;28.40;;;15.70;;
58784;SDS011;44557;51.862;19.378;2023-02-13T02:25:28;29.40;;;17.80;;
58784;SDS011;44557;51.862;19.378;2023-02-13T02:30:07;31.70;;;17.70;;
58784;SDS011;44557;51.862;19.378;2023-02-13T02:41:22;29.40;;;17.90;;
58784;SDS011;44557;51.862;19.378;2023-02-13T02:43:54;32.50;;;19.10;;
58784;SDS011;44557;51.862;19.378;2023-02-13T02:48:27;31.50;;;18.60;;
58784;SDS011;44557;51.862;19.378;2023-02-13T02:53:10;29.00;;;19.40;;
58784;SDS011;44557;51.862;19.378;2023-02-13T02:55:34;31.20;;;18.60;;
58784;SDS011;44557;51.862;19.378;2023-02-13T02:57:51;32.70;;;19.40;;
58784;SDS011;44557;51.862;19.378;2023-02-13T03:00:21;34.80;;;20.30;;
58784;SDS011;44557;51.862;19.378;2023-02-13T03:02:44;36.00;;;19.20;;
58784;SDS011;44557;51.862;19.378;2023-02-13T03:05:07;39.10;;;21.50;;
58784;SDS011;44557;51.862;19.378;2023-02-13T03:07:39;35.70;;;21.00;;
58784;SDS011;44557;51.862;19.378;2023-02-13T03:09:48;36.10;;;21.10;;
58784;SDS011;44557;51.862;19.378;2023-02-13T03:12:11;37.30;;;21.80;;
58784;SDS011;44557;51.862;19.378;2023-02-13T03:14:38;31.70;;;20.00;;
58784;SDS011;44557;51.862;19.378;2023-02-13T03:16:40;30.90;;;18.90;;
58784;SDS011;44557;51.862;19.378;2023-02-13T03:19:00;36.00;;;20.20;;
58784;SDS011;44557;51.862;19.378;2023-02-13T03:24:30;32.50;;;19.90;;
58784;SDS011;44557;51.862;19.378;2023-02-13T03:29:03;34.60;;;19.70;;
58784;SDS011;44557;51.862;19.378;2023-02-13T03:32:05;32.40;;;19.80;;
58784;SDS011;44557;51.862;19.378;2023-02-13T03:34:09;32.80;;;18.70;;
58784;SDS011;44557;51.862;19.378;2023-02-13T03:38:41;32.60;;;19.50;;
58784;SDS011;44557;51.862;19.378;2023-02-13T03:40:49;32.50;;;19.40;;
58784;SDS011;44557;51.862;19.378;2023-02-13T03:45:22;32.00;;;19.90;;
58784;SDS011;44557;51.862;19.378;2023-02-13T03:47:49;33.50;;;19.30;;
58784;SDS011;44557;51.862;19.378;2023-02-13T03:49:54;29.80;;;19.00;;
58784;SDS011;44557;51.862;19.378;2023-02-13T03:52:10;33.60;;;18.80;;
58784;SDS011;44557;51.862;19.378;2023-02-13T03:56:48;29.90;;;18.60;;
58784;SDS011;44557;51.862;19.378;2023-02-13T03:59:10;31.10;;;18.20;;
58784;SDS011;44557;51.862;19.378;2023-02-13T04:01:22;32.10;;;18.60;;
58784;SDS011;44557;51.862;19.378;2023-02-13T04:03:29;28.00;;;17.60;;
58784;SDS011;44557;51.862;19.378;2023-02-13T04:05:42;32.20;;;17.80;;
58784;SDS011;44557;51.862;19.378;2023-02-13T04:07:48;29.50;;;17.70;;
58784;SDS011;44557;51.862;19.378;2023-02-13T04:09:50;30.20;;;17.60;;
58784;SDS011;44557;51.862;19.378;2023-02-13T04:11:53;31.80;;;17.40;;
58784;SDS011;44557;51.862;19.378;2023-02-13T04:14:03;31.90;;;17.40;;
58784;SDS011;44557;51.862;19.378;2023-02-13T04:16:15;29.60;;;17.40;;
58784;SDS011;44557;51.862;19.378;2023-02-13T04:18:28;28.80;;;16.30;;
58784;SDS011;44557;51.862;19.378;2023-02-13T04:20:32;28.70;;;17.10;;
58784;SDS011;44557;51.862;19.378;2023-02-13T04:22:33;29.50;;;16.60;;
58784;SDS011;44557;51.862;19.378;2023-02-13T04:24:35;29.00;;;16.30;;
58784;SDS011;44557;51.862;19.378;2023-02-13T04:26:38;26.70;;;16.90;;
58784;SDS011;44557;51.862;19.378;2023-02-13T04:28:42;27.90;;;16.10;;
58784;SDS011;44557;51.862;19.378;2023-02-13T04:30:43;27.70;;;16.10;;
58784;SDS011;44557;51.862;19.378;2023-02-13T04:32:45;25.30;;;15.10;;
58784;SDS011;44557;51.862;19.378;2023-02-13T04:34:46;25.90;;;16.30;;
58784;SDS011;44557;51.862;19.378;2023-02-13T04:36:48;25.10;;;15.20;;
58784;SDS011;44557;51.862;19.378;2023-02-13T04:38:50;27.20;;;15.30;;
58784;SDS011;44557;51.862;19.378;2023-02-13T04:40:51;26.10;;;14.80;;
58784;SDS011;44557;51.862;19.378;2023-02-13T04:42:53;26.90;;;15.90;;
58784;SDS011;44557;51.862;19.378;2023-02-13T04:44:55;24.90;;;14.70;;
58784;SDS011;44557;51.862;19.378;2023-02-13T04:46:56;23.90;;;15.00;;
58784;SDS011;44557;51.862;19.378;2023-02-13T04:48:58;28.10;;;14.60;;
58784;SDS011;44557;51.862;19.378;2023-02-13T04:50:59;25.10;;;15.00;;
58784;SDS011;44557;51.862;19.378;2023-02-13T04:53:01;24.90;;;15.00;;
58784;SDS011;44557;51.862;19.378;2023-02-13T04:55:02;27.50;;;14.90;;
58784;SDS011;44557;51.862;19.378;2023-02-13T04:57:04;24.60;;;14.70;;
58784;SDS011;44557;51.862;19.378;2023-02-13T04:59:06;23.00;;;14.80;;
58784;SDS011;44557;51.862;19.378;2023-02-13T05:01:11;26.60;;;14.40;;
58784;SDS011;44557;51.862;19.378;2023-02-13T05:03:13;25.20;;;13.50;;
58784;SDS011;44557;51.862;19.378;2023-02-13T05:05:15;24.20;;;13.00;;
58784;SDS011;44557;51.862;19.378;2023-02-13T05:07:17;26.10;;;13.30;;
58784;SDS011;44557;51.862;19.378;2023-02-13T05:09:18;23.70;;;13.00;;
58784;SDS011;44557;51.862;19.378;2023-02-13T05:11:20;26.00;;;13.50;;
58784;SDS011;44557;51.862;19.378;2023-02-13T05:13:21;23.60;;;13.00;;
58784;SDS011;44557;51.862;19.378;2023-02-13T05:15:23;26.80;;;13.50;;
58784;SDS011;44557;51.862;19.378;2023-02-13T05:17:24;23.10;;;12.00;;
58784;SDS011;44557;51.862;19.378;2023-02-13T05:19:26;23.90;;;12.40;;
58784;SDS011;44557;51.862;19.378;2023-02-13T05:21:27;23.90;;;12.50;;
58784;SDS011;44557;51.862;19.378;2023-02-13T05:25:49;20.40;;;11.80;;
58784;SDS011;44557;51.862;19.378;2023-02-13T05:27:50;21.80;;;12.00;;
58784;SDS011;44557;51.862;19.378;2023-02-13T05:29:52;22.00;;;11.70;;
58784;SDS011;44557;51.862;19.378;2023-02-13T05:31:57;21.30;;;11.50;;
58784;SDS011;44557;51.862;19.378;2023-02-13T05:33:59;20.30;;;11.70;;
58784;SDS011;44557;51.862;19.378;2023-02-13T05:36:01;22.20;;;12.30;;
58784;SDS011;44557;51.862;19.378;2023-02-13T05:38:03;20.70;;;10.80;;
58784;SDS011;44557;51.862;19.378;2023-02-13T05:40:05;22.00;;;11.70;;
58784;SDS011;44557;51.862;19.378;2023-02-13T05:42:07;21.20;;;10.90;;
58784;SDS011;44557;51.862;19.378;2023-02-13T05:44:10;21.20;;;10.70;;
58784;SDS011;44557;51.862;19.378;2023-02-13T05:46:13;20.30;;;11.00;;
58784;SDS011;44557;51.862;19.378;2023-02-13T05:48:14;20.20;;;11.20;;
58784;SDS011;44557;51.862;19.378;2023-02-13T05:50:16;18.40;;;10.20;;
58784;SDS011;44557;51.862;19.378;2023-02-13T05:52:17;18.90;;;10.60;;
58784;SDS011;44557;51.862;19.378;2023-02-13T05:54:19;16.60;;;9.70;;
58784;SDS011;44557;51.862;19.378;2023-02-13T05:56:21;18.70;;;10.40;;
58784;SDS011;44557;51.862;19.378;2023-02-13T05:58:23;21.90;;;11.00;;
58784;SDS011;44557;51.862;19.378;2023-02-13T06:00:24;18.90;;;10.60;;
58784;SDS011;44557;51.862;19.378;2023-02-13T06:02:26;19.60;;;10.10;;
58784;SDS011;44557;51.862;19.378;2023-02-13T06:04:27;16.30;;;9.90;;
58784;SDS011;44557;51.862;19.378;2023-02-13T06:06:29;18.70;;;10.80;;
58784;SDS011;44557;51.862;19.378;2023-02-13T06:08:30;17.00;;;9.80;;
58784;SDS011;44557;51.862;19.378;2023-02-13T06:10:32;17.20;;;9.40;;
58784;SDS011;44557;51.862;19.378;2023-02-13T06:12:34;17.10;;;9.30;;
58784;SDS011;44557;51.862;19.378;2023-02-13T06:14:35;15.10;;;8.80;;
58784;SDS011;44557;51.862;19.378;2023-02-13T06:16:37;17.30;;;8.90;;
58784;SDS011;44557;51.862;19.378;2023-02-13T06:18:38;14.80;;;8.60;;
58784;SDS011;44557;51.862;19.378;2023-02-13T06:20:40;17.40;;;9.10;;
58784;SDS011;44557;51.862;19.378;2023-02-13T06:22:42;16.40;;;9.50;;
58784;SDS011;44557;51.862;19.378;2023-02-13T06:24:43;14.90;;;7.90;;
58784;SDS011;44557;51.862;19.378;2023-02-13T06:26:45;15.40;;;8.40;;
58784;SDS011;44557;51.862;19.378;2023-02-13T06:28:46;17.00;;;8.40;;
58784;SDS011;44557;51.862;19.378;2023-02-13T06:30:48;16.80;;;7.70;;
58784;SDS011;44557;51.862;19.378;2023-02-13T06:32:49;15.40;;;8.60;;
58784;SDS011;44557;51.862;19.378;2023-02-13T06:34:51;14.30;;;8.80;;
58784;SDS011;44557;51.862;19.378;2023-02-13T06:36:52;17.00;;;8.60;;
58784;SDS011;44557;51.862;19.378;2023-02-13T06:38:55;12.30;;;7.40;;
58784;SDS011;44557;51.862;19.378;2023-02-13T06:41:00;13.70;;;8.20;;
58784;SDS011;44557;51.862;19.378;2023-02-13T06:43:02;15.80;;;8.50;;
58784;SDS011;44557;51.862;19.378;2023-02-13T06:45:04;15.20;;;8.50;;
58784;SDS011;44557;51.862;19.378;2023-02-13T06:47:06;15.80;;;8.60;;
58784;SDS011;44557;51.862;19.378;2023-02-13T06:49:08;16.50;;;8.80;;
58784;SDS011;44557;51.862;19.378;2023-02-13T06:51:09;15.90;;;9.00;;
58784;SDS011;44557;51.862;19.378;2023-02-13T06:53:11;15.20;;;8.20;;
58784;SDS011;44557;51.862;19.378;2023-02-13T06:55:13;14.90;;;8.90;;
58784;SDS011;44557;51.862;19.378;2023-02-13T06:57:14;16.30;;;8.50;;
58784;SDS011;44557;51.862;19.378;2023-02-13T06:59:16;15.80;;;8.80;;
58784;SDS011;44557;51.862;19.378;2023-02-13T07:01:18;16.40;;;8.70;;
58784;SDS011;44557;51.862;19.378;2023-02-13T07:03:19;17.40;;;9.60;;
58784;SDS011;44557;51.862;19.378;2023-02-13T07:05:21;16.10;;;9.40;;
58784;SDS011;44557;51.862;19.378;2023-02-13T07:07:23;17.00;;;9.70;;
58784;SDS011;44557;51.862;19.378;2023-02-13T07:09:24;17.40;;;9.50;;
58784;SDS011;44557;51.862;19.378;2023-02-13T07:11:26;17.20;;;11.10;;
58784;SDS011;44557;51.862;19.378;2023-02-13T07:13:27;17.70;;;10.60;;
58784;SDS011;44557;51.862;19.378;2023-02-13T07:15:29;18.70;;;10.90;;
58784;SDS011;44557;51.862;19.378;2023-02-13T07:17:31;20.60;;;11.90;;
58784;SDS011;44557;51.862;19.378;2023-02-13T07:19:34;19.60;;;11.50;;
58784;SDS011;44557;51.862;19.378;2023-02-13T07:21:35;18.70;;;10.90;;
58784;SDS011;44557;51.862;19.378;2023-02-13T07:23:38;15.70;;;11.10;;
58784;SDS011;44557;51.862;19.378;2023-02-13T07:25:39;17.80;;;12.20;;
58784;SDS011;44557;51.862;19.378;2023-02-13T07:27:41;20.10;;;12.10;;
58784;SDS011;44557;51.862;19.378;2023-02-13T07:29:42;19.40;;;12.40;;
58784;SDS011;44557;51.862;19.378;2023-02-13T07:31:44;19.80;;;12.30;;
58784;SDS011;44557;51.862;19.378;2023-02-13T07:33:48;21.30;;;13.70;;
58784;SDS011;44557;51.862;19.378;2023-02-13T07:35:51;21.20;;;13.00;;
58784;SDS011;44557;51.862;19.378;2023-02-13T07:37:54;22.40;;;14.50;;
58784;SDS011;44557;51.862;19.378;2023-02-13T07:39:56;23.00;;;14.80;;
58784;SDS011;44557;51.862;19.378;2023-02-13T07:41:57;20.70;;;14.50;;
58784;SDS011;44557;51.862;19.378;2023-02-13T07:43:59;24.90;;;16.00;;
58784;SDS011;44557;51.862;19.378;2023-02-13T07:46:01;22.10;;;15.10;;
58784;SDS011;44557;51.862;19.378;2023-02-13T07:48:04;23.90;;;16.30;;
58784;SDS011;44557;51.862;19.378;2023-02-13T07:50:06;23.60;;;15.90;;
58784;SDS011;44557;51.862;19.378;2023-02-13T07:52:08;24.90;;;15.90;;
58784;SDS011;44557;51.862;19.378;2023-02-13T07:54:10;23.00;;;15.80;;
58784;SDS011;44557;51.862;19.378;2023-02-13T07:56:12;23.30;;;16.30;;
58784;SDS011;44557;51.862;19.378;2023-02-13T07:58:13;25.50;;;16.60;;
58784;SDS011;44557;51.862;19.378;2023-02-13T08:00:15;22.00;;;16.20;;
58784;SDS011;44557;51.862;19.378;2023-02-13T08:02:17;26.00;;;16.60;;
58784;SDS011;44557;51.862;19.378;2023-02-13T08:04:18;22.80;;;16.00;;
58784;SDS011;44557;51.862;19.378;2023-02-13T08:06:20;23.40;;;15.10;;
58784;SDS011;44557;51.862;19.378;2023-02-13T08:08:22;22.40;;;15.30;;
58784;SDS011;44557;51.862;19.378;2023-02-13T08:10:24;23.80;;;16.50;;
58784;SDS011;44557;51.862;19.378;2023-02-13T08:12:44;22.30;;;15.00;;
58784;SDS011;44557;51.862;19.378;2023-02-13T08:14:46;21.60;;;15.40;;
58784;SDS011;44557;51.862;19.378;2023-02-13T08:16:47;23.60;;;16.40;;
58784;SDS011;44557;51.862;19.378;2023-02-13T08:18:49;20.70;;;14.80;;
58784;SDS011;44557;51.862;19.378;2023-02-13T08:20:51;20.80;;;14.80;;
58784;SDS011;44557;51.862;19.378;2023-02-13T08:22:52;20.30;;;14.50;;
58784;SDS011;44557;51.862;19.378;2023-02-13T08:24:54;20.20;;;14.40;;
58784;SDS011;44557;51.862;19.378;2023-02-13T08:26:56;19.20;;;13.80;;
58784;SDS011;44557;51.862;19.378;2023-02-13T08:28:57;19.10;;;14.20;;
58784;SDS011;44557;51.862;19.378;2023-02-13T08:30:59;19.90;;;14.10;;
58784;SDS011;44557;51.862;19.378;2023-02-13T08:33:01;19.90;;;13.40;;
58784;SDS011;44557;51.862;19.378;2023-02-13T08:35:02;17.30;;;12.30;;
58784;SDS011;44557;51.862;19.378;2023-02-13T08:37:04;18.90;;;13.10;;
58784;SDS011;44557;51.862;19.378;2023-02-13T08:39:05;19.80;;;13.30;;
58784;SDS011;44557;51.862;19.378;2023-02-13T08:41:09;17.50;;;12.00;;
58784;SDS011;44557;51.862;19.378;2023-02-13T08:43:11;17.50;;;12.60;;
58784;SDS011;44557;51.862;19.378;2023-02-13T08:45:12;17.60;;;12.10;;
58784;SDS011;44557;51.862;19.378;2023-02-13T08:47:14;15.50;;;11.10;;
58784;SDS011;44557;51.862;19.378;2023-02-13T08:49:15;16.60;;;11.10;;
58784;SDS011;44557;51.862;19.378;2023-02-13T08:51:17;17.30;;;10.70;;
58784;SDS011;44557;51.862;19.378;2023-02-13T08:53:18;15.90;;;10.80;;
58784;SDS011;44557;51.862;19.378;2023-02-13T08:55:20;15.30;;;10.30;;
58784;SDS011;44557;51.862;19.378;2023-02-13T08:57:22;17.50;;;10.10;;
58784;SDS011;44557;51.862;19.378;2023-02-13T08:59:23;13.80;;;8.90;;
58784;SDS011;44557;51.862;19.378;2023-02-13T09:01:25;14.80;;;9.40;;
58784;SDS011;44557;51.862;19.378;2023-02-13T09:03:26;13.60;;;8.30;;
58784;SDS011;44557;51.862;19.378;2023-02-13T09:05:29;12.80;;;9.10;;
58784;SDS011;44557;51.862;19.378;2023-02-13T09:07:31;13.60;;;8.60;;
58784;SDS011;44557;51.862;19.378;2023-02-13T09:09:33;11.60;;;7.40;;
58784;SDS011;44557;51.862;19.378;2023-02-13T09:11:34;11.50;;;8.00;;
58784;SDS011;44557;51.862;19.378;2023-02-13T09:13:36;13.10;;;8.20;;
58784;SDS011;44557;51.862;19.378;2023-02-13T09:15:40;11.40;;;7.90;;
58784;SDS011;44557;51.862;19.378;2023-02-13T09:17:42;12.20;;;7.70;;
58784;SDS011;44557;51.862;19.378;2023-02-13T09:19:43;12.00;;;8.30;;
58784;SDS011;44557;51.862;19.378;2023-02-13T09:21:46;12.10;;;7.90;;
58784;SDS011;44557;51.862;19.378;2023-02-13T09:23:48;11.90;;;7.80;;
58784;SDS011;44557;51.862;19.378;2023-02-13T09:25:51;11.80;;;7.60;;
58784;SDS011;44557;51.862;19.378;2023-02-13T09:27:53;11.10;;;7.70;;
58784;SDS011;44557;51.862;19.378;2023-02-13T09:29:55;12.30;;;8.10;;
58784;SDS011;44557;51.862;19.378;2023-02-13T09:31:56;10.60;;;7.40;;
58784;SDS011;44557;51.862;19.378;2023-02-13T09:33:58;13.50;;;7.70;;
58784;SDS011;44557;51.862;19.378;2023-02-13T09:36:06;12.90;;;7.70;;
58784;SDS011;44557;51.862;19.378;2023-02-13T09:38:13;12.40;;;8.50;;
58784;SDS011;44557;51.862;19.378;2023-02-13T09:40:26;11.90;;;7.40;;
58784;SDS011;44557;51.862;19.378;2023-02-13T09:42:32;11.50;;;7.00;;
58784;SDS011;44557;51.862;19.378;2023-02-13T09:44:38;11.90;;;7.40;;
58784;SDS011;44557;51.862;19.378;2023-02-13T09:46:43;11.60;;;6.70;;
58784;SDS011;44557;51.862;19.378;2023-02-13T09:48:46;11.60;;;7.30;;
58784;SDS011;44557;51.862;19.378;2023-02-13T09:50:51;12.30;;;7.50;;
58784;SDS011;44557;51.862;19.378;2023-02-13T09:52:53;10.60;;;7.00;;
58784;SDS011;44557;51.862;19.378;2023-02-13T09:54:57;10.40;;;6.20;;
58784;SDS011;44557;51.862;19.378;2023-02-13T09:57:02;9.00;;;5.60;;
58784;SDS011;44557;51.862;19.378;2023-02-13T10:01:30;10.20;;;6.30;;
58784;SDS011;44557;51.862;19.378;2023-02-13T10:03:44;10.50;;;6.20;;
58784;SDS011;44557;51.862;19.378;2023-02-13T10:05:52;10.40;;;5.80;;
58784;SDS011;44557;51.862;19.378;2023-02-13T10:15:16;8.50;;;5.40;;
58784;SDS011;44557;51.862;19.378;2023-02-13T10:17:34;8.70;;;5.60;;
58784;SDS011;44557;51.862;19.378;2023-02-13T10:21:46;8.90;;;4.90;;
58784;SDS011;44557;51.862;19.378;2023-02-13T10:23:54;9.70;;;5.30;;
58784;SDS011;44557;51.862;19.378;2023-02-13T10:26:01;8.00;;;5.40;;
58784;SDS011;44557;51.862;19.378;2023-02-13T10:28:09;7.90;;;4.70;;
58784;SDS011;44557;51.862;19.378;2023-02-13T10:32:23;8.70;;;5.20;;
58784;SDS011;44557;51.862;19.378;2023-02-13T10:34:30;9.60;;;4.70;;
58784;SDS011;44557;51.862;19.378;2023-02-13T10:36:39;7.90;;;4.60;;
58784;SDS011;44557;51.862;19.378;2023-02-13T10:38:50;8.20;;;4.50;;
58784;SDS011;44557;51.862;19.378;2023-02-13T10:43:08;6.40;;;4.00;;
58784;SDS011;44557;51.862;19.378;2023-02-13T10:52:43;6.40;;;4.10;;
58784;SDS011;44557;51.862;19.378;2023-02-13T11:02:23;7.10;;;3.90;;
58784;SDS011;44557;51.862;19.378;2023-02-13T11:04:29;9.30;;;4.00;;
58784;SDS011;44557;51.862;19.378;2023-02-13T11:06:31;7.80;;;3.80;;
58784;SDS011;44557;51.862;19.378;2023-02-13T11:08:39;7.90;;;3.90;;
58784;SDS011;44557;51.862;19.378;2023-02-13T11:10:46;9.20;;;4.20;;
58784;SDS011;44557;51.862;19.378;2023-02-13T11:12:48;6.70;;;4.00;;
58784;SDS011;44557;51.862;19.378;2023-02-13T11:14:54;7.20;;;4.20;;
58784;SDS011;44557;51.862;19.378;2023-02-13T11:17:01;8.90;;;4.70;;
58784;SDS011;44557;51.862;19.378;2023-02-13T11:19:12;9.70;;;4.80;;
58784;SDS011;44557;51.862;19.378;2023-02-13T11:21:21;9.00;;;4.80;;
58784;SDS011;44557;51.862;19.378;2023-02-13T11:23:39;8.40;;;4.40;;
58784;SDS011;44557;51.862;19.378;2023-02-13T11:25:58;9.40;;;5.00;;
58784;SDS011;44557;51.862;19.378;2023-02-13T11:28:06;9.00;;;5.70;;
58784;SDS011;44557;51.862;19.378;2023-02-13T11:32:38;10.00;;;5.20;;
58784;SDS011;44557;51.862;19.378;2023-02-13T11:34:40;9.40;;;5.30;;
58784;SDS011;44557;51.862;19.378;2023-02-13T11:36:42;9.50;;;6.20;;
58784;SDS011;44557;51.862;19.378;2023-02-13T11:38:43;10.40;;;5.60;;
58784;SDS011;44557;51.862;19.378;2023-02-13T11:40:46;9.90;;;5.60;;
58784;SDS011;44557;51.862;19.378;2023-02-13T11:42:50;10.80;;;6.00;;
58784;SDS011;44557;51.862;19.378;2023-02-13T11:44:53;10.30;;;5.90;;
58784;SDS011;44557;51.862;19.378;2023-02-13T11:46:59;9.80;;;5.40;;
58784;SDS011;44557;51.862;19.378;2023-02-13T11:49:04;9.90;;;6.00;;
58784;SDS011;44557;51.862;19.378;2023-02-13T11:51:13;9.10;;;5.90;;
58784;SDS011;44557;51.862;19.378;2023-02-13T11:53:18;9.50;;;5.70;;
58784;SDS011;44557;51.862;19.378;2023-02-13T11:55:25;10.30;;;5.80;;
58784;SDS011;44557;51.862;19.378;2023-02-13T11:57:30;10.40;;;6.30;;
58784;SDS011;44557;51.862;19.378;2023-02-13T11:59:41;9.80;;;6.10;;
58784;SDS011;44557;51.862;19.378;2023-02-13T12:01:44;10.30;;;5.90;;
58784;SDS011;44557;51.862;19.378;2023-02-13T12:06:13;9.00;;;5.70;;
58784;SDS011;44557;51.862;19.378;2023-02-13T12:08:16;10.70;;;6.10;;
58784;SDS011;44557;51.862;19.378;2023-02-13T12:10:21;10.60;;;5.40;;
58784;SDS011;44557;51.862;19.378;2023-02-13T12:12:30;10.70;;;5.60;;
58784;SDS011;44557;51.862;19.378;2023-02-13T12:14:39;10.10;;;5.20;;
58784;SDS011;44557;51.862;19.378;2023-02-13T12:16:57;9.80;;;5.90;;
58784;SDS011;44557;51.862;19.378;2023-02-13T12:19:05;10.60;;;5.00;;
58784;SDS011;44557;51.862;19.378;2023-02-13T12:25:33;10.10;;;4.90;;
58784;SDS011;44557;51.862;19.378;2023-02-13T12:30:26;12.20;;;5.40;;
58784;SDS011;44557;51.862;19.378;2023-02-13T12:32:44;9.50;;;5.00;;
58784;SDS011;44557;51.862;19.378;2023-02-13T12:35:08;10.40;;;4.80;;
58784;SDS011;44557;51.862;19.378;2023-02-13T12:39:34;9.20;;;4.60;;
58784;SDS011;44557;51.862;19.378;2023-02-13T12:48:57;9.10;;;4.40;;
58784;SDS011;44557;51.862;19.378;2023-02-13T12:51:11;8.00;;;4.30;;
58784;SDS011;44557;51.862;19.378;2023-02-13T12:53:22;8.50;;;4.40;;
58784;SDS011;44557;51.862;19.378;2023-02-13T13:08:45;9.60;;;5.40;;
58784;SDS011;44557;51.862;19.378;2023-02-13T13:18:17;8.40;;;4.70;;
58784;SDS011;44557;51.862;19.378;2023-02-13T13:22:32;7.90;;;4.30;;
58784;SDS011;44557;51.862;19.378;2023-02-13T13:27:27;9.10;;;4.40;;
58784;SDS011;44557;51.862;19.378;2023-02-13T13:29:41;9.30;;;5.10;;
58784;SDS011;44557;51.862;19.378;2023-02-13T13:32:05;8.80;;;4.60;;
58784;SDS011;44557;51.862;19.378;2023-02-13T13:34:12;9.30;;;4.90;;
58784;SDS011;44557;51.862;19.378;2023-02-13T13:36:26;12.20;;;5.30;;
58784;SDS011;44557;51.862;19.378;2023-02-13T13:41:03;9.00;;;4.40;;
58784;SDS011;44557;51.862;19.378;2023-02-13T13:50:40;10.90;;;5.80;;
58784;SDS011;44557;51.862;19.378;2023-02-13T13:55:08;13.00;;;6.40;;
58784;SDS011;44557;51.862;19.378;2023-02-13T13:57:57;10.00;;;5.60;;
58784;SDS011;44557;51.862;19.378;2023-02-13T14:00:02;9.10;;;5.40;;
58784;SDS011;44557;51.862;19.378;2023-02-13T14:02:25;10.00;;;5.40;;
58784;SDS011;44557;51.862;19.378;2023-02-13T14:04:38;10.00;;;5.40;;
58784;SDS011;44557;51.862;19.378;2023-02-13T14:12:58;10.90;;;6.70;;
58784;SDS011;44557;51.862;19.378;2023-02-13T14:15:02;12.20;;;6.10;;
58784;SDS011;44557;51.862;19.378;2023-02-13T14:17:04;12.00;;;6.70;;
58784;SDS011;44557;51.862;19.378;2023-02-13T14:19:21;13.20;;;7.10;;
58784;SDS011;44557;51.862;19.378;2023-02-13T14:28:34;10.10;;;6.30;;